Latest Coastal Weather Observations for Wadeye (Port Keats)

IDD60701

Issued at 6:11 am CST Friday 28 August 2015 (issued every 10 minutes, with the page automatically refreshed every 10 minutes)

About coastal observations | Map of coastal stations | Coastal observations for NT | Marine services | Other Formats
Station Details ID: 014948 Name: PORT KEATS AIRPORT Lat: -14.25 Lon: 129.53 Height: 28.0 m
Data from the previous 72 hours. | See also: Recent months at Wadeye (Port Keats)
Date/Time
CST
Temp

°C
Wind Pressure Rain
since 9am
mm
Weather Cloud Vis
km
Sea
Height
m
Swell
Dir
 
Speed
knots
Gust
knots
hPa Trend Height
m
Period
s
Dir
28/01:00am 23.0 CALM 0 0 1014.4 - 0.0 - - - - - - -
28/12:30am 23.0 CALM 0 0 1014.5 - 0.0 - - - - - - -
28/12:00am 22.4 CALM 0 0 1014.6 - 0.0 - - - - - - -
 
Date/Time
CST
Temp

°C
Wind Pressure Rain
since 9am
mm
Weather Cloud Vis
km
Sea
Height
m
Swell
Dir
 
Speed
knots
Gust
knots
hPa Trend Height
m
Period
s
Dir
27/11:30pm 22.9 CALM 0 0 1014.7 - 0.0 - - - - - - -
27/11:00pm 23.6 CALM 0 0 1014.8 - 0.0 - - - - - - -
27/10:30pm 24.6 N 3 4 1014.8 - 0.0 - - - - - - -
27/10:00pm 24.0 CALM 0 0 1014.8 - 0.0 - - - - - - -
27/09:30pm 24.2 W 1 3 1014.5 - 0.0 - - - - - - -
27/09:00pm 24.4 CALM 0 0 1014.3 - 0.0 - - - - - - -
27/08:30pm 24.9 WNW 3 5 1014.1 - 0.0 - - - - - - -
27/08:00pm 25.2 WNW 3 4 1013.8 - 0.0 - - - - - - -
27/07:30pm 25.6 W 1 4 1013.5 - 0.0 - - - - - - -
27/07:00pm 26.1 WNW 5 7 1013.1 - 0.0 - - - - - - -
27/06:30pm 26.8 W 6 8 1012.9 - 0.0 - - - - - - -
27/06:00pm 28.3 W 6 10 1012.8 - 0.0 - - - - - - -
27/05:30pm 28.5 W 7 11 1012.5 - 0.0 - - - - - - -
27/05:00pm 29.1 W 7 13 1012.3 - 0.0 - - - - - - -
27/04:30pm 29.2 W 8 13 1012.3 - 0.0 - - - - - - -
27/04:00pm 30.2 WNW 8 12 1012.2 - 0.0 - - - - - - -
27/03:30pm 30.1 NW 8 12 1012.4 - 0.0 - - - - - - -
27/03:00pm 30.2 NW 8 11 1012.6 - 0.0 - - - - - - -
27/02:30pm 29.8 NW 8 11 1013.1 - 0.0 - - - - - - -
27/02:00pm 30.4 NW 9 14 1013.3 - 0.0 - - - - - - -
27/01:30pm 30.8 NW 9 12 1013.9 - 0.0 - - - - - - -
27/01:00pm 29.3 NNW 9 11 1014.4 - 0.0 - - - - - - -
27/12:30pm 29.8 WNW 6 8 1015.0 - 0.0 - - - - - - -
27/12:00pm 27.8 WNW 5 8 1015.5 - 0.0 - - - - - - -
27/11:30am 27.8 WSW 6 10 1016.0 - 0.0 - - - - - - -
27/11:00am 27.9 WSW 7 10 1016.3 - 0.0 - - - - - - -
27/10:30am 28.0 NW 5 7 1016.4 - 0.0 - - - - - - -
27/10:00am 26.9 SW 1 5 1016.4 - 0.0 - - - - - - -
27/09:30am 26.0 CALM 0 2 1016.3 - 0.0 - - - - - - -
27/09:00am 25.8 SE 3 5 1016.0 - 0.0 - - - - - - -
27/08:30am 25.0 ESE 4 5 1015.7 - 0.0 - - - - - - -
27/08:00am 23.4 SE 2 3 1015.3 - 0.0 - - - - - - -
27/07:30am 22.5 SE 3 4 1014.8 - 0.0 - - - - - - -
27/07:00am 21.3 SSE 3 5 1014.3 - 0.0 - - - - - - -
27/06:30am 20.2 CALM 0 0 1013.8 - 0.0 - - - - - - -
27/06:00am 20.4 CALM 0 0 1013.5 - 0.0 - - - - - - -
27/05:30am 20.6 CALM 0 0 1013.2 - 0.0 - - - - - - -
27/05:00am 20.8 CALM 0 0 1013.0 - 0.0 - - - - - - -
27/04:30am 20.5 CALM 0 0 1013.0 - 0.0 - - - - - - -
27/04:00am 21.1 CALM 0 0 1012.9 - 0.0 - - - - - - -
27/03:30am 21.9 CALM 0 0 1013.0 - 0.0 - - - - - - -
27/03:00am 21.1 CALM 0 0 1013.1 - 0.0 - - - - - - -
27/02:30am 21.2 CALM 0 0 1013.4 - 0.0 - - - - - - -
27/02:00am 22.1 N 3 3 1013.6 - 0.0 - - - - - - -
27/01:30am 22.7 N 3 5 1013.7 - 0.0 - - - - - - -
27/01:00am 21.7 CALM 0 0 1013.9 - 0.0 - - - - - - -
27/12:30am 22.0 CALM 0 0 1014.1 - 0.0 - - - - - - -
27/12:00am 22.3 CALM 0 0 1014.4 - 0.0 - - - - - - -
 
Date/Time
CST
Temp

°C
Wind Pressure Rain
since 9am
mm
Weather Cloud Vis
km
Sea
Height
m
Swell
Dir
 
Speed
knots
Gust
knots
hPa Trend Height
m
Period
s
Dir
26/11:30pm 23.2 CALM 0 0 1014.5 - 0.0 - - - - - - -
26/11:00pm 24.0 CALM 0 0 1014.4 - 0.0 - - - - - - -
26/10:30pm 23.9 NNW 1 3 1014.3 - 0.0 - - - - - - -
26/10:00pm 24.0 CALM 0 0 1014.3 - 0.0 - - - - - - -
26/09:30pm 24.6 NW 1 4 1014.0 - 0.0 - - - - - - -
26/09:00pm 24.5 CALM 0 0 1013.9 - 0.0 - - - - - - -
26/08:30pm 24.8 WSW 1 4 1013.6 - 0.0 - - - - - - -
26/08:00pm 25.3 SW 3 4 1013.4 - 0.0 - - - - - - -
26/07:30pm 25.7 WSW 4 5 1013.1 - 0.0 - - - - - - -
26/07:00pm 26.3 WSW 5 8 1012.8 - 0.0 - - - - - - -
26/06:30pm 27.0 WSW 6 10 1012.6 - 0.0 - - - - - - -
26/06:00pm 28.0 WSW 6 10 1012.3 - 0.0 - - - - - - -
26/05:30pm 28.0 WSW 9 14 1012.1 - 0.0 - - - - - - -
26/05:00pm 29.0 W 8 11 1012.0 - 0.0 - - - - - - -
26/04:30pm 29.9 W 9 12 1011.9 - 0.0 - - - - - - -
26/04:00pm 29.6 WNW 9 12 1012.0 - 0.0 - - - - - - -
26/03:30pm 30.1 WNW 7 13 1012.2 - 0.0 - - - - - - -
26/03:00pm 29.6 WNW 9 13 1012.5 - 0.0 - - - - - - -
26/02:30pm 30.2 WNW 9 13 1012.9 - 0.0 - - - - - - -
26/02:00pm 30.2 NW 9 13 1013.4 - 0.0 - - - - - - -
26/01:30pm 30.5 NNW 9 15 1013.9 - 0.0 - - - - - - -
26/01:00pm 31.0 NW 7 13 1014.5 - 0.0 - - - - - - -
26/12:30pm 30.4 N 7 12 1015.2 - 0.0 - - - - - - -
26/12:00pm 30.8 N 6 12 1015.9 - 0.0 - - - - - - -
26/11:30am 30.1 N 4 8 1016.4 - 0.0 - - - - - - -
26/11:00am 29.3 NW 5 8 1016.8 - 0.0 - - - - - - -
26/10:30am 28.3 NNW 4 6 1017.2 - 0.0 - - - - - - -
26/10:00am 27.1 WNW 5 7 1017.2 - 0.0 - - - - - - -
26/09:30am 26.6 W 5 7 1016.8 - 0.0 - - - - - - -
26/09:00am 25.9 WNW 3 6 1016.4 - 0.0 - - - - - - -
26/08:30am 25.7 CALM 0 0 1016.0 - 0.0 - - - - - - -
26/08:00am 23.5 CALM 0 0 1015.9 - 0.0 - - - - - - -
26/07:30am 22.0 CALM 0 0 1015.6 - 0.0 - - - - - - -
26/07:00am 21.4 CALM 0 0 1015.1 - 0.0 - - - - - - -
26/06:30am 21.9 CALM 0 0 1014.7 - 0.0 - - - - - - -
26/06:00am 22.2 CALM 0 0 1014.3 - 0.0 - - - - - - -
26/05:30am 22.2 CALM 0 0 1014.1 - 0.0 - - - - - - -
26/05:00am 22.1 CALM 0 0 1013.8 - 0.0 - - - - - - -
26/04:30am 21.9 CALM 0 0 1013.6 - 0.0 - - - - - - -
26/04:00am 22.0 CALM 0 0 1013.3 - 0.0 - - - - - - -
26/03:30am 22.6 NE 3 4 1013.3 - 0.0 - - - - - - -
26/03:00am 22.6 CALM 0 0 1013.4 - 0.0 - - - - - - -
26/02:30am 23.0 CALM 0 0 1013.5 - 0.0 - - - - - - -
26/02:00am 23.1 CALM 0 0 1013.7 - 0.0 - - - - - - -
26/01:30am 23.3 N 3 4 1014.0 - 0.0 - - - - - - -
26/01:00am 23.3 CALM 0 0 1014.2 - 0.0 - - - - - - -
26/12:30am 23.2 CALM 0 0 1014.3 - 0.0 - - - - - - -
26/12:00am 22.9 S 3 5 1014.5 - 0.0 - - - - - - -
 
Date/Time
CST
Temp

°C
Wind Pressure Rain
since 9am
mm
Weather Cloud Vis
km
Sea
Height
m
Swell
Dir
 
Speed
knots
Gust
knots
hPa Trend Height
m
Period
s
Dir
25/11:30pm 23.3 S 1 3 1014.7 - 0.0 - - - - - - -
25/11:00pm 23.4 CALM 0 4 1014.8 - 0.0 - - - - - - -
25/10:30pm 23.7 CALM 0 0 1015.0 - 0.0 - - - - - - -
25/10:00pm 23.9 CALM 0 0 1014.7 - 0.0 - - - - - - -
25/09:30pm 24.1 SW 1 4 1014.7 - 0.0 - - - - - - -
25/09:00pm 24.5 SW 2 4 1014.6 - 0.0 - - - - - - -
25/08:30pm 24.8 WSW 3 4 1014.3 - 0.0 - - - - - - -
25/08:00pm 25.0 W 5 7 1013.9 - 0.0 - - - - - - -
25/07:30pm 25.3 W 4 7 1013.4 - 0.0 - - - - - - -
25/07:00pm 25.4 WSW 7 10 1013.1 - 0.0 - - - - - - -
25/06:30pm 26.0 W 7 11 1012.8 - 0.0 - - - - - - -
25/06:00pm 26.9 W 8 12 1012.5 - 0.0 - - - - - - -
25/05:30pm 27.8 WNW 8 11 1012.4 - 0.0 - - - - - - -
25/05:00pm 28.5 WNW 8 12 1012.2 - 0.0 - - - - - - -
25/04:30pm 28.6 WNW 9 14 1012.2 - 0.0 - - - - - - -
25/04:00pm 28.8 WNW 9 15 1012.2 - 0.0 - - - - - - -
25/03:30pm 29.2 NW 9 13 1012.4 - 0.0 - - - - - - -
25/03:00pm 29.8 NW 10 13 1012.6 - 0.0 - - - - - - -
25/02:30pm 30.1 NW 9 13 1013.0 - 0.0 - - - - - - -
25/02:00pm 30.4 NW 9 14 1013.3 - 0.0 - - - - - - -
25/01:30pm 30.6 NNW 10 17 1013.9 - 0.0 - - - - - - -
25/01:00pm 30.1 NNW 9 14 1014.4 - 0.0 - - - - - - -
25/12:30pm 30.8 N 9 14 1014.8 - 0.0 - - - - - - -
25/12:00pm 30.4 N 8 14 1015.6 - 0.0 - - - - - - -
25/11:30am 29.8 NW 7 15 1016.1 - 0.0 - - - - - - -
25/11:00am 28.9 N 8 11 1016.6 - 0.0 - - - - - - -
25/10:30am 28.6 N 8 13 1016.9 - 0.0 - - - - - - -
25/10:00am 27.2 N 8 11 1016.7 - 0.0 - - - - - - -
25/09:30am 26.4 N 7 8 1016.6 - 0.0 - - - - - - -
25/09:00am 26.0 ENE 1 3 1016.4 - 0.0 - - - - - - -
25/08:30am 23.6 E 4 5 1016.1 - 0.0 - - - - - - -
25/08:00am 22.0 E 4 5 1015.7 - 0.0 - - - - - - -
25/07:30am 21.5 NE 3 4 1015.4 - 0.0 - - - - - - -
25/07:00am 21.5 CALM 0 0 1014.6 - 0.0 - - - - - - -
25/06:30am 21.6 CALM 0 0 1014.2 - 0.0 - - - - - - -

Other Formats:

Comma delimited format used in spreadsheet applications
http://www.bom.gov.au/fwo/IDD60701/IDD60701.95111.axf

JavaScript Object Notation format (JSON) in row-major order
http://www.bom.gov.au/fwo/IDD60701/IDD60701.95111.json